Flight Track Log - Related Links

Times and Time Zones

All times are in EDT time to prevent confusion due to time zone crossing. See the UAL3779 flight status page for this flight to view local times or setup timezone preferences in your user account.

Time Position Orientation Groundspeed Altitude Reporting Facility
EDT Latitude Longitude Course Direction KTS MPH feet Rate Location/Type
Sat 04:01:33 PM 33.6500 -84.4667 296° West 166 191 2,900  Level Atlanta TRACON
Sat 04:02:44 PM 33.6833 -84.5500 296° West 259 298 5,400 2,448 Climbing Atlanta TRACON
Sat 04:03:38 PM 33.7333 -84.5833 331° Northwest 275 316 8,000 2,576 Climbing Atlanta TRACON
Sat 04:05:41 PM 33.8892 -84.5844 360° North 289 333 13,000 2,525 Climbing Atlanta Center
Sat 04:06:41 PM 33.9831 -84.5850 360° North 296 341 15,700 1,800 Climbing Atlanta Center
Sat 04:07:41 PM 34.0644 -84.5906 357° North 301 346 16,600 1,400 Climbing Atlanta Center
Sat 04:08:41 PM 34.1792 -84.5911 360° North 349 402 18,500 1,900 Climbing Atlanta Center
Sat 04:09:41 PM 34.2836 -84.5969 357° North 370 426 20,400 1,800 Climbing Atlanta Center
Sat 04:10:41 PM 34.3900 -84.6053 356° North 376 433 22,100 1,550 Climbing Atlanta Center
Sat 04:11:41 PM 34.5006 -84.6136 356° North 387 445 23,500 1,450 Climbing Atlanta Center
Sat 04:12:41 PM 34.6006 -84.6217 356° North 392 451 25,000 1,400 Climbing Atlanta Center
Sat 04:13:41 PM 34.7111 -84.6325 355° North 398 458 26,300 1,350 Climbing Atlanta Center
Sat 04:14:41 PM 34.8258 -84.6436 355° North 403 464 27,700 1,250 Climbing Atlanta Center
Sat 04:15:41 PM 34.9406 -84.6519 357° North 408 470 28,800 1,050 Climbing Atlanta Center
Sat 04:16:41 PM 35.0575 -84.6603 357° North 408 470 29,800 1,000 Climbing Atlanta Center
Sat 04:17:41 PM 35.1764 -84.6739 355° North 414 476 30,800 800 Climbing Atlanta Center
Sat 04:18:41 PM 35.2972 -84.6825 357° North 424 488 31,400 600 Climbing Atlanta Center
Sat 04:19:41 PM 35.4183 -84.6936 356° North 429 494 32,000 300 Climbing Atlanta Center
Sat 04:20:41 PM 35.5453 -84.7050 356° North 440 506 32,000 350 Level Atlanta Center
Sat 04:21:41 PM 35.6747 -84.7136 357° North 446 513 32,700 850 Climbing Atlanta Center
Sat 04:22:41 PM 35.8164 -84.7250 356° North 461 531 33,700 650 Climbing Atlanta Center
Sat 04:23:41 PM 35.9500 -84.7364 356° North 461 531 34,000 405 Climbing Atlanta Center
Sat 04:25:09 PM 36.1283 -84.7542 355° North 471 542 34,700 685 Climbing Indianapolis Center
Sat 04:26:10 PM 36.2597 -84.7617 357° North 473 544 35,700 634 Climbing Indianapolis Center
Sat 04:27:12 PM 36.3903 -84.7581 North 471 542 36,000 146 Climbing Indianapolis Center
Sat 04:28:13 PM 36.5256 -84.7556 North 483 556 36,000  Level Indianapolis Center
Sat 04:29:14 PM 36.6864 -84.7525 North 480 552 36,000  Level Indianapolis Center
Sat 04:30:15 PM 36.8178 -84.7503 North 474 545 36,000  Level Indianapolis Center
Sat 04:31:17 PM 36.9472 -84.7472 North 466 536 36,000  Level Indianapolis Center
Sat 04:32:18 PM 37.0814 -84.7461 360° North 467 537 36,000  Level Indianapolis Center
Sat 04:33:19 PM 37.2147 -84.7428 North 473 544 36,000  Level Indianapolis Center
Sat 04:34:20 PM 37.3492 -84.7403 North 478 550 36,000  Level Indianapolis Center
Sat 04:35:21 PM 37.4822 -84.7358 North 475 547 36,000  Level Indianapolis Center
Sat 04:36:23 PM 37.6142 -84.7361 360° North 470 541 36,000  Level Indianapolis Center
Sat 04:37:24 PM 37.7439 -84.7328 North 466 536 36,000  Level Indianapolis Center
Sat 04:38:25 PM 37.8742 -84.7303 North 466 536 36,000  Level Indianapolis Center
Sat 04:39:26 PM 38.0028 -84.7272 North 461 531 36,000  Level Indianapolis Center
Sat 04:40:27 PM 38.1319 -84.7342 358° North 464 534 36,000  Level Indianapolis Center
Sat 04:41:29 PM 38.2525 -84.7781 344° North 450 518 36,000  Level Indianapolis Center
Sat 04:42:30 PM 38.3731 -84.8253 343° North 451 519 36,000  Level Indianapolis Center
Sat 04:43:31 PM 38.5156 -84.8806 343° North 456 525 36,000  Level Indianapolis Center
Sat 04:44:32 PM 38.6372 -84.9278 343° North 456 525 36,000 -293 Level Indianapolis Center
Sat 04:45:34 PM 38.7411 -84.9697 343° North 452 520 35,400 -1,317 Descending Indianapolis Center
Sat 04:46:35 PM 38.8625 -85.0175 343° North 454 522 33,300 -2,213 Descending Indianapolis Center
Sat 04:47:36 PM 38.9969 -85.0694 343° North 423 487 30,900 -1,610 Descending Indianapolis Center
Sat 04:48:38 PM 39.1067 -85.1133 343° North 414 476 30,000 -439 Descending Indianapolis Center
Sat 04:49:39 PM 39.2189 -85.1586 343° North 417 480 30,000  Level Indianapolis Center
Sat 04:50:40 PM 39.3322 -85.2039 343° North 420 483 30,000  Level Indianapolis Center
Sat 04:51:42 PM 39.4447 -85.2497 343° North 419 482 30,000 -439 Level Indianapolis Center
Sat 04:52:43 PM 39.5633 -85.2975 343° North 435 501 29,100 -1,171 Descending Indianapolis Center
Sat 04:53:45 PM 39.6803 -85.3453 343° North 438 504 27,600 -1,463 Descending Indianapolis Center
Sat 04:54:46 PM 39.7953 -85.3922 343° North 431 496 26,100 -787 Descending Indianapolis Center
Sat 04:55:47 PM 39.9042 -85.4361 343° North 410 472 26,000 -49 Descending Indianapolis Center
Sat 04:56:49 PM 40.0092 -85.4783 343° North 394 453 26,000 -244 Level Indianapolis Center
Sat 04:57:50 PM 40.1150 -85.5217 343° North 394 453 25,500 -857 Descending Indianapolis Center
Sat 04:58:13 PM 40.1658 -85.5417 343° North 396 456 24,800 -1,059 Descending Chicago Center
Sat 04:59:15 PM 40.2686 -85.5867 342° North 391 450 24,000 -387 Descending Chicago Center
Sat 05:00:17 PM 40.3683 -85.6281 342° North 381 438 24,000  Level Chicago Center
Sat 05:01:19 PM 40.4681 -85.6733 341° North 379 436 24,000 -293 Level Chicago Center
Sat 05:02:20 PM 40.5556 -85.7456 328° Northwest 379 436 23,400 -537 Descending Chicago Center
Sat 05:03:22 PM 40.6319 -85.8250 322° Northwest 352 405 22,900 -484 Descending Chicago Center
Sat 05:04:24 PM 40.7081 -85.9025 322° Northwest 345 397 22,400 -439 Descending Chicago Center
Sat 05:05:25 PM 40.7861 -85.9842 322° Northwest 356 410 22,000 -195 Descending Chicago Center
Sat 05:06:27 PM 40.8828 -86.0875 321° Northwest 369 425 22,000  Level Chicago Center
Sat 05:07:29 PM 40.9614 -86.1689 322° Northwest 360 414 22,000  Level Chicago Center
Sat 05:08:30 PM 41.0406 -86.2519 322° Northwest 361 415 22,000  Level Chicago Center
Sat 05:09:32 PM 41.1175 -86.3344 321° Northwest 356 410 22,000  Level Chicago Center
Sat 05:10:33 PM 41.1956 -86.4186 321° Northwest 359 413 22,000 -878 Level Chicago Center
Sat 05:11:35 PM 41.2761 -86.5025 322° Northwest 368 423 20,200 -2,081 Descending Chicago Center
Sat 05:12:37 PM 41.3528 -86.5867 321° Northwest 360 414 17,700 -1,805 Descending Chicago Center
Sat 05:13:38 PM 41.4272 -86.6658 321° Northwest 345 397 16,500 -1,512 Descending Chicago Center
Sat 05:14:40 PM 41.5022 -86.7464 321° Northwest 337 388 14,600 -2,049 Descending Chicago Center
Sat 05:15:41 PM 41.6056 -86.7892 343° North 343 395 12,300 -1,268 Descending Chicago Center
Sat 05:16:43 PM 41.6967 -86.7989 355° North 336 387 12,000 -435 Descending Chicago Center
Sat 05:17:45 PM 41.7861 -86.8111 354° North 327 376 11,400 -435 Descending Chicago Center
Sat 05:18:47 PM 41.8697 -86.8381 347° North 315 362 11,100 -537 Descending Chicago Center
Sat 05:19:48 PM 41.9150 -86.9361 302° West 322 371 10,300 -488 Descending Chicago Center
Sat 05:20:50 PM 41.9528 -87.0383 296° West 310 357 10,100 -145 Descending Chicago Center
Sat 05:21:52 PM 41.9819 -87.1706 287° West 314 361 10,000 -49 Descending Chicago Center
Sat 05:22:53 PM 41.9839 -87.2906 271° West 321 369 10,000 -98 Level Chicago Center
Sat 05:23:55 PM 41.9839 -87.4008 270° West 307 353 9,800 -1,091 Descending Chicago Center
Sat 05:24:54 PM 41.9833 -87.5000 270° West 253 291 7,800 -1,966 Descending Chicago TRACON
Sat 05:25:54 PM 41.9833 -87.5833 270° West 244 281 5,900 -1,900 Descending Chicago TRACON
Sat 05:26:54 PM 41.9833 -87.6667 270° West 207 238 4,000 -1,537 Descending Chicago TRACON
Sat 05:27:55 PM 41.9833 -87.7500 270° West 209 241 2,800 -1,091 Descending Chicago TRACON
Sat 05:28:55 PM 41.9833 -87.8167 270° West 189 217 1,800 -950 Descending Chicago TRACON
Sat 05:29:55 PM 41.9833 -87.8667 270° West 129 148 900 -900 Descending Chicago TRACON

Login

Don't have an account? Register now (free) for customized features, flight alerts, and more!